Time;durP1;ratioP1;P1;durP2;ratioP2;P2;SDS_P1;SDS_P2;PMS_P1;PMS_P2;Temp;Humidity;BMP_temperature;BMP_pressure;BME280_temperature;BME280_humidity;BME280_pressure;Samples;Min_cycle;Max_cycle;Signal;HPM_P1;HPM_P2
2022/05/10 00:02:05;;;;;;;7.20;5.78;;;;;;;16.89;49.85;99777.28;5107629;28;20300;-76
2022/05/10 00:04:35;;;;;;;8.43;5.00;;;;;;;16.80;49.62;99772.63;5107552;28;20296;-76
2022/05/10 00:07:05;;;;;;;5.68;4.32;;;;;;;16.73;50.52;99778.53;5107919;28;20040;-76
2022/05/10 00:09:35;;;;;;;6.82;5.88;;;;;;;16.73;50.27;99774.03;5107211;28;20036;-76
2022/05/10 00:12:08;;;;;;;10.25;6.38;;;;;;;16.73;50.63;99766.00;5107664;28;20100;-76
2022/05/10 00:14:35;;;;;;;5.93;5.28;;;;;;;16.74;50.48;99770.38;5106354;28;20056;-76
2022/05/10 00:17:06;;;;;;;6.55;5.68;;;;;;;16.70;50.86;99765.38;5107091;28;20229;-76
2022/05/10 00:19:36;;;;;;;6.85;5.28;;;;;;;16.70;50.81;99755.53;5107096;28;20304;-76
2022/05/10 00:22:06;;;;;;;6.78;5.03;;;;;;;16.68;51.10;99760.13;5106733;28;20342;-76
2022/05/10 00:24:36;;;;;;;6.15;5.55;;;;;;;16.69;51.16;99759.16;5106864;28;20044;-75
2022/05/10 00:27:08;;;;;;;7.10;5.43;;;;;;;16.70;51.48;99762.69;5106922;28;20093;-75
2022/05/10 00:29:36;;;;;;;6.93;5.45;;;;;;;16.65;51.33;99758.50;5106819;28;20208;-75
2022/05/10 00:32:07;;;;;;;6.25;5.18;;;;;;;15.37;51.62;99547.78;5107017;28;20284;-75
2022/05/10 00:34:36;;;;;;;7.15;5.32;;;;;;;16.55;51.61;99764.66;5107175;28;20107;-75
2022/05/10 00:37:08;;;;;;;8.38;4.57;;;;;;;16.47;51.21;99756.34;5106757;28;20314;-75
2022/05/10 00:39:37;;;;;;;5.00;4.32;;;;;;;16.44;51.04;99752.06;5106859;28;20101;-76
2022/05/10 00:42:16;;;;;;;7.28;4.85;;;;;;;16.32;51.70;99744.94;5106834;28;20079;-75
2022/05/10 00:44:56;;;;;;;5.15;4.32;;;;;;;16.30;51.92;99747.72;5106059;28;20082;-75
2022/05/10 00:47:34;;;;;;;5.57;4.57;;;;;;;16.35;51.49;99748.22;5106323;28;20047;-75
2022/05/10 00:50:12;;;;;;;6.97;4.93;;;;;;;16.35;51.63;99750.91;5106599;28;20078;-75
2022/05/10 00:52:52;;;;;;;6.95;4.20;;;;;;;16.31;51.67;99740.53;5106273;28;20051;-75
2022/05/10 00:55:29;;;;;;;6.72;4.50;;;;;;;16.23;52.00;99738.44;5106292;28;20081;-75
2022/05/10 00:58:10;;;;;;;6.20;4.90;;;;;;;16.21;51.91;99736.81;5106489;28;20040;-75
2022/05/10 01:00:43;;;;;;;5.10;4.32;;;;;;;16.24;51.67;99739.28;5106477;28;20085;-75
2022/05/10 01:03:22;;;;;;;5.28;4.57;;;;;;;15.48;51.71;99633.34;5106092;28;20114;-75
2022/05/10 01:06:01;;;;;;;6.00;4.90;;;;;;;16.16;52.47;99730.97;5106086;28;20078;-75
2022/05/10 01:08:41;;;;;;;7.40;4.65;;;;;;;16.08;52.58;99739.53;5106219;28;20086;-76
2022/05/10 01:11:18;;;;;;;6.13;4.60;;;;;;;14.32;52.46;99441.31;5105115;28;20044;-75
2022/05/10 01:13:55;;;;;;;5.30;4.32;;;;;;;16.04;52.70;99738.91;5106028;28;20040;-75
2022/05/10 01:16:28;;;;;;;5.57;4.60;;;;;;;16.10;51.96;99729.59;5106176;28;20058;-75
2022/05/10 01:19:00;;;;;;;5.85;4.07;;;;;;;16.10;51.76;99729.59;5106178;28;20040;-75
2022/05/10 01:21:50;;;;;;;5.55;4.35;;;;;;;16.09;53.12;99735.03;5106074;28;20044;-75
2022/05/10 01:24:48;;;;;;;6.00;4.55;;;;;;;16.09;53.55;99735.03;5105810;28;20040;-75
2022/05/10 01:27:41;;;;;;;4.97;3.70;;;;;;;16.04;53.51;99736.22;5106029;28;20346;-76
2022/05/10 01:30:18;;;;;;;7.20;4.68;;;;;;;15.94;52.80;99735.16;5105702;28;20040;-75
2022/05/10 01:35:53;;;;;;;4.82;4.10;;;;;;;15.75;53.89;99740.09;5105692;28;20353;-75
2022/05/10 01:38:35;;;;;;;6.88;4.90;;;;;;;15.01;53.88;99644.69;5105733;28;20044;-75
2022/05/10 01:41:17;;;;;;;6.15;4.65;;;;;;;15.66;53.88;99751.44;5105938;28;20048;-76
2022/05/10 01:43:56;;;;;;;6.28;4.55;;;;;;;15.63;54.02;99751.63;5105877;28;20334;-76
2022/05/10 01:46:32;;;;;;;5.20;4.22;;;;;;;15.64;53.90;99753.34;5105514;28;20178;-75
2022/05/10 01:49:13;;;;;;;5.45;4.47;;;;;;;15.62;54.16;99750.78;5105186;28;20040;-76
2022/05/10 01:51:52;;;;;;;4.55;3.85;;;;;;;15.61;54.04;99746.38;5105624;28;20048;-76
2022/05/10 01:55:12;;;;;;;6.05;4.43;;;;;;;15.61;55.09;99743.72;5104703;28;20061;-75
2022/05/10 01:57:44;;;;;;;6.45;4.32;;;;;;;15.54;53.69;99744.25;5105679;28;20065;-75
2022/05/10 02:00:21;;;;;;;6.43;4.68;;;;;;;15.53;54.75;99734.53;5105655;28;20036;-75
2022/05/10 02:02:59;;;;;;;7.63;5.53;;;;;;;15.54;54.79;99736.22;5105602;28;20376;-76
2022/05/10 02:05:35;;;;;;;10.20;5.43;;;;;;;15.57;53.79;99734.22;5104813;28;20044;-76
2022/05/10 02:08:15;;;;;;;5.97;4.25;;;;;;;15.55;54.52;99735.28;5105284;28;20044;-76
2022/05/10 02:10:51;;;;;;;9.15;5.72;;;;;;;15.52;53.75;99733.66;5105527;28;20040;-76
2022/05/10 02:13:30;;;;;;;6.28;4.32;;;;;;;15.39;54.22;99730.13;5105422;28;20052;-76
2022/05/10 02:16:07;;;;;;;5.53;4.70;;;;;;;15.23;54.74;99738.34;5105193;28;20097;-76
2022/05/10 02:18:47;;;;;;;5.80;4.20;;;;;;;15.20;54.40;99725.22;5105208;28;20048;-76
2022/05/10 02:21:24;;;;;;;7.57;4.63;;;;;;;15.30;54.16;99726.28;5105150;28;20047;-76
2022/05/10 02:24:02;;;;;;;5.43;4.07;;;;;;;15.03;54.31;99701.47;5105043;28;20064;-75
2022/05/10 02:26:40;;;;;;;6.30;4.40;;;;;;;14.02;53.75;99502.03;5105162;28;20182;-75
2022/05/10 02:29:18;;;;;;;5.07;4.07;;;;;;;15.21;54.20;99726.06;5105163;28;20043;-75
2022/05/10 02:34:46;;;;;;;5.57;4.40;;;;;;;15.14;53.80;99714.09;5105311;28;20099;-75
2022/05/10 02:37:17;;;;;;;6.68;4.97;;;;;;;15.18;53.49;99716.44;5105259;28;20047;-75
2022/05/10 02:39:47;;;;;;;6.35;4.95;;;;;;;15.19;53.17;99715.50;5105542;28;20051;-75
2022/05/10 02:42:22;;;;;;;8.35;4.90;;;;;;;14.72;53.16;99644.84;5105196;28;20230;-76
2022/05/10 02:44:55;;;;;;;7.95;4.03;;;;;;;15.12;53.19;99719.53;5105193;28;20044;-76
2022/05/10 02:47:32;;;;;;;7.40;4.13;;;;;;;15.14;53.15;99714.09;5104461;28;20040;-75
2022/05/10 02:50:09;;;;;;;5.50;4.90;;;;;;;15.15;52.99;99718.47;5105182;28;20040;-76
2022/05/10 02:52:41;;;;;;;4.50;3.72;;;;;;;15.16;52.82;99706.84;5105046;28;20090;-76
2022/05/10 02:55:17;;;;;;;5.43;4.32;;;;;;;15.13;53.16;99723.06;5104911;28;20040;-75
2022/05/10 02:57:53;;;;;;;6.38;4.97;;;;;;;15.10;53.48;99713.44;5105269;28;20101;-76
2022/05/10 03:00:26;;;;;;;6.82;4.50;;;;;;;15.12;52.82;99716.88;5106499;28;20082;-76
2022/05/10 03:03:05;;;;;;;5.35;4.10;;;;;;;14.49;53.17;99609.94;5108811;28;20097;-75
2022/05/10 03:05:39;;;;;;;6.57;3.88;;;;;;;14.71;53.01;99659.16;5108577;28;20044;-75
2022/05/10 03:08:11;;;;;;;4.90;3.67;;;;;;;14.93;53.19;99709.25;5108502;28;20089;-76
2022/05/10 03:10:43;;;;;;;4.70;3.85;;;;;;;14.92;53.32;99704.88;5108615;28;20086;-75
2022/05/10 03:13:16;;;;;;;5.03;4.25;;;;;;;14.99;53.14;99700.81;5108165;28;20044;-75
2022/05/10 03:15:48;;;;;;;4.95;3.53;;;;;;;14.99;52.67;99703.50;5108260;28;20040;-75
2022/05/10 03:18:20;;;;;;;7.57;4.55;;;;;;;14.98;53.06;99704.47;5107662;28;20040;-75
2022/05/10 03:20:54;;;;;;;5.82;3.50;;;;;;;14.92;52.92;99704.88;5108332;28;20090;-76
2022/05/10 03:23:27;;;;;;;6.93;4.35;;;;;;;14.88;53.02;99706.03;5107830;28;20055;-75
2022/05/10 03:25:59;;;;;;;8.77;4.40;;;;;;;14.84;53.12;99707.19;5107992;28;20085;-75
2022/05/10 03:28:32;;;;;;;4.82;3.70;;;;;;;14.82;53.29;99703.78;5108162;28;20048;-76
2022/05/10 03:31:05;;;;;;;5.65;4.32;;;;;;;14.82;53.27;99709.13;5107970;28;20040;-76
2022/05/10 03:33:37;;;;;;;10.23;4.47;;;;;;;14.84;53.23;99706.34;5108093;28;20284;-75
2022/05/10 03:36:11;;;;;;;6.38;3.88;;;;;;;10.26;52.99;98939.75;5107008;28;20040;-76
2022/05/10 03:38:43;;;;;;;9.45;3.92;;;;;;;14.87;53.23;99706.13;5106922;28;20094;-76
2022/05/10 03:41:16;;;;;;;6.80;4.80;;;;;;;14.82;53.19;99711.78;5107753;28;20040;-76
2022/05/10 03:43:48;;;;;;;6.45;4.40;;;;;;;14.83;53.08;99716.16;5108213;28;20039;-76
2022/05/10 03:46:20;;;;;;;6.20;4.95;;;;;;;14.59;53.12;99669.75;5108231;28;20044;-76
2022/05/10 03:48:53;;;;;;;9.05;5.45;;;;;;;14.75;53.40;99710.47;5107819;28;20044;-76
2022/05/10 03:51:27;;;;;;;5.82;4.47;;;;;;;14.78;53.58;99712.94;5107638;28;20085;-76
2022/05/10 03:53:59;;;;;;;6.65;5.15;;;;;;;14.80;53.60;99712.84;5108043;28;20097;-76
2022/05/10 03:56:33;;;;;;;5.28;4.78;;;;;;;14.72;54.59;99714.22;5107790;28;20044;-76
2022/05/10 03:59:06;;;;;;;8.27;5.28;;;;;;;14.74;54.41;99717.63;5107737;28;20112;-76
2022/05/10 04:01:38;;;;;;;10.95;5.35;;;;;;;14.10;54.66;99615.16;5107384;28;20242;-76
2022/05/10 04:04:10;;;;;;;7.22;4.97;;;;;;;14.70;54.44;99712.59;5107630;28;20043;-76
2022/05/10 04:06:43;;;;;;;7.70;5.50;;;;;;;13.11;54.99;99448.47;5106566;28;20062;-76
2022/05/10 04:09:16;;;;;;;13.57;10.68;;;;;;;14.70;54.73;99720.59;5106672;28;20040;-77
2022/05/10 04:11:48;;;;;;;23.70;19.67;;;;;;;14.77;54.54;99719.25;5107285;28;20075;-76
2022/05/10 04:14:20;;;;;;;16.52;11.65;;;;;;;14.82;54.34;99719.78;5107215;28;20069;-76
2022/05/10 04:16:53;;;;;;;12.88;8.05;;;;;;;14.84;54.11;99741.03;5107149;28;20040;-76
2022/05/10 04:19:25;;;;;;;7.80;5.43;;;;;;;14.83;54.40;99715.31;5107362;28;20230;-76
2022/05/10 04:21:58;;;;;;;6.93;5.80;;;;;;;14.84;54.52;99720.53;5107319;28;20062;-76
2022/05/10 04:24:31;;;;;;;7.57;5.25;;;;;;;14.82;54.80;99724.28;5107581;28;20044;-77
2022/05/10 04:27:04;;;;;;;5.95;5.35;;;;;;;14.80;54.90;99727.03;5107064;28;20085;-76
2022/05/10 04:29:36;;;;;;;8.52;5.18;;;;;;;14.81;54.69;99739.44;5106849;28;20044;-77
2022/05/10 04:32:09;;;;;;;6.47;5.32;;;;;;;14.85;54.83;99732.94;5107017;28;20051;-77
2022/05/10 04:34:41;;;;;;;10.20;5.30;;;;;;;14.85;54.97;99735.59;5106848;28;20086;-76
2022/05/10 04:37:15;;;;;;;6.85;5.47;;;;;;;14.87;55.38;99741.69;5105821;28;20040;-76
2022/05/10 04:42:33;;;;;;;6.22;4.85;;;;;;;14.92;55.40;99744.91;5106699;28;20086;-76
2022/05/10 04:45:06;;;;;;;6.75;5.05;;;;;;;13.64;55.35;99526.72;5105570;28;20311;-76
2022/05/10 04:47:38;;;;;;;6.85;5.50;;;;;;;14.98;55.40;99749.81;5105532;28;20200;-76
2022/05/10 04:50:11;;;;;;;9.32;6.20;;;;;;;14.98;55.40;99744.50;5106377;28;20214;-76
2022/05/10 04:52:45;;;;;;;9.68;6.63;;;;;;;15.02;55.55;99747.81;5106421;28;20048;-76
2022/05/10 04:55:18;;;;;;;6.97;5.88;;;;;;;15.01;55.21;99746.94;5106165;28;20040;-77
2022/05/10 04:57:50;;;;;;;7.00;5.40;;;;;;;15.04;55.62;99757.44;5106171;28;20242;-77
2022/05/10 05:00:24;;;;;;;7.68;5.28;;;;;;;15.08;55.15;99758.06;5106150;28;20040;-77
2022/05/10 05:02:56;;;;;;;11.40;5.75;;;;;;;15.08;54.95;99756.25;5106372;28;20043;-77
2022/05/10 05:05:28;;;;;;;8.38;5.70;;;;;;;15.04;55.40;99762.75;5105445;28;20047;-77
2022/05/10 05:08:02;;;;;;;8.15;6.40;;;;;;;15.05;56.07;99758.28;5105332;28;20207;-76
2022/05/10 05:10:34;;;;;;;8.45;5.85;;;;;;;15.07;55.59;99756.38;5106196;28;20079;-77
2022/05/10 05:13:06;;;;;;;5.60;4.65;;;;;;;14.81;55.41;99711.88;5105883;28;20242;-76
2022/05/10 05:15:38;;;;;;;9.02;5.55;;;;;;;14.81;54.44;99704.75;5105846;28;20101;-76
2022/05/10 05:18:12;;;;;;;5.60;4.82;;;;;;;15.16;54.60;99766.41;5106077;28;20050;-76
2022/05/10 05:20:44;;;;;;;11.25;4.95;;;;;;;15.26;54.69;99769.31;5106666;28;20052;-76
2022/05/10 05:23:20;;;;;;;7.95;4.88;;;;;;;15.28;54.90;99768.25;5104735;28;20060;-76
2022/05/10 05:25:55;;;;;;;9.98;5.78;;;;;;;15.31;54.03;99762.72;5106138;28;20040;-77
2022/05/10 05:28:27;;;;;;;7.18;5.38;;;;;;;15.34;53.68;99767.00;5105903;28;20040;-76
2022/05/10 05:31:00;;;;;;;8.60;5.05;;;;;;;15.37;53.42;99764.97;5105871;28;20085;-76
2022/05/10 05:33:33;;;;;;;6.78;5.30;;;;;;;15.38;53.35;99761.34;5105751;28;20040;-76
2022/05/10 05:36:06;;;;;;;5.90;4.55;;;;;;;15.40;52.86;99771.91;5105768;28;20081;-76
2022/05/10 05:38:39;;;;;;;6.55;4.72;;;;;;;15.44;53.16;99767.22;5105499;28;20092;-77
2022/05/10 05:41:12;;;;;;;5.82;4.43;;;;;;;15.42;53.50;99764.66;5105759;28;20085;-76
2022/05/10 05:43:44;;;;;;;8.35;6.32;;;;;;;15.47;53.52;99764.34;5105441;28;20237;-76
2022/05/10 05:46:16;;;;;;;7.65;4.78;;;;;;;15.51;53.00;99771.16;5105337;28;20145;-76
2022/05/10 05:48:49;;;;;;;5.63;4.72;;;;;;;15.54;53.08;99766.47;5105245;28;20044;-77
2022/05/10 05:51:22;;;;;;;7.18;5.03;;;;;;;15.55;52.84;99768.19;5104549;28;20227;-76
2022/05/10 05:53:55;;;;;;;9.05;5.05;;;;;;;15.60;52.73;99776.72;5105251;28;20235;-75
2022/05/10 05:56:27;;;;;;;7.38;5.00;;;;;;;15.64;52.35;99772.03;5105267;28;20235;-76
2022/05/10 05:58:59;;;;;;;6.35;4.35;;;;;;;15.66;52.10;99771.00;5105521;28;20063;-77
2022/05/10 06:01:32;;;;;;;7.15;5.38;;;;;;;15.71;51.66;99770.69;5104727;28;20127;-76
2022/05/10 06:04:04;;;;;;;6.95;5.32;;;;;;;15.35;51.50;99707.28;5105512;28;20048;-76
2022/05/10 06:06:36;;;;;;;11.43;5.95;;;;;;;15.80;51.51;99766.50;5105418;28;20081;-77
2022/05/10 06:09:10;;;;;;;6.80;5.28;;;;;;;15.87;51.20;99783.81;5105310;28;20094;-76
2022/05/10 06:11:42;;;;;;;10.48;5.53;;;;;;;13.87;51.11;99413.31;5105392;28;20065;-76
2022/05/10 06:14:14;;;;;;;7.65;6.05;;;;;;;15.94;51.75;99761.03;5105189;28;20040;-76
2022/05/10 06:16:46;;;;;;;7.63;5.78;;;;;;;15.98;51.54;99770.56;5105139;28;20353;-76
2022/05/10 06:19:20;;;;;;;9.50;5.97;;;;;;;16.04;51.53;99762.97;5105296;28;20085;-76
2022/05/10 06:21:52;;;;;;;8.77;5.40;;;;;;;16.14;51.18;99781.00;5104930;28;20074;-76
2022/05/10 06:24:27;;;;;;;9.88;5.80;;;;;;;15.01;50.93;99808.34;5104972;28;20247;-77
2022/05/10 06:26:59;;;;;;;6.18;4.75;;;;;;;16.29;50.61;99767.41;5104999;28;20061;-77
2022/05/10 06:29:31;;;;;;;6.82;5.63;;;;;;;16.39;49.99;99766.72;5104068;28;20040;-77
2022/05/10 06:32:04;;;;;;;7.53;5.07;;;;;;;16.50;50.00;99766.81;5104998;28;20040;-77
2022/05/10 06:34:39;;;;;;;9.43;5.82;;;;;;;16.65;49.47;99768.34;5107261;28;20085;-77
2022/05/10 06:39:58;;;;;;;5.93;4.88;;;;;;;17.39;47.93;99759.22;5108737;28;20044;-77
2022/05/10 06:42:27;;;;;;;7.97;5.47;;;;;;;12.75;46.91;98911.00;5108719;28;20103;-77
2022/05/10 06:44:58;;;;;;;8.95;5.55;;;;;;;18.02;46.13;99759.72;5107891;28;20304;-77
2022/05/10 06:47:28;;;;;;;8.75;4.78;;;;;;;17.98;45.65;99704.63;5108564;28;20040;-77
2022/05/10 06:49:58;;;;;;;9.40;5.22;;;;;;;18.30;45.75;99710.06;5108501;28;20051;-77
2022/05/10 06:52:29;;;;;;;7.20;5.20;;;;;;;18.78;45.07;99756.22;5108513;28;20048;-77
2022/05/10 06:55:00;;;;;;;11.38;5.68;;;;;;;18.77;44.28;99743.75;5107718;28;20246;-77
2022/05/10 06:57:29;;;;;;;8.52;5.72;;;;;;;18.79;44.62;99750.72;5108460;28;20032;-77
2022/05/10 06:59:59;;;;;;;12.35;5.72;;;;;;;18.89;44.92;99750.78;5108407;28;20046;-77
2022/05/10 07:02:30;;;;;;;10.52;6.57;;;;;;;16.84;44.89;99388.63;5108446;28;20039;-77
2022/05/10 07:05:00;;;;;;;7.97;5.20;;;;;;;19.13;44.49;99745.19;5107502;28;20343;-77
2022/05/10 07:07:30;;;;;;;8.23;5.63;;;;;;;19.28;44.39;99743.06;5108704;28;20089;-77
2022/05/10 07:10:02;;;;;;;6.40;4.82;;;;;;;19.40;44.31;99742.03;5108161;28;20036;-76
2022/05/10 07:12:31;;;;;;;9.73;5.75;;;;;;;19.61;44.15;99745.56;5107282;28;20284;-76
2022/05/10 07:15:01;;;;;;;7.55;5.25;;;;;;;19.83;43.96;99732.00;5107996;28;20059;-76
2022/05/10 07:17:31;;;;;;;13.90;5.57;;;;;;;20.02;43.32;99759.97;5108076;28;20040;-76
2022/05/10 07:20:02;;;;;;;8.75;5.32;;;;;;;20.11;43.39;99735.78;5108049;28;20036;-76
2022/05/10 07:22:32;;;;;;;11.25;5.82;;;;;;;20.27;43.05;99738.00;5108043;28;20366;-77
2022/05/10 07:25:05;;;;;;;9.85;6.15;;;;;;;19.92;41.74;99679.22;5108478;28;20036;-76
2022/05/10 07:27:32;;;;;;;8.90;5.90;;;;;;;18.84;42.31;99490.72;5107949;28;20051;-77
2022/05/10 07:30:03;;;;;;;12.30;4.75;;;;;;;20.43;42.48;99734.78;5108597;28;20093;-76
2022/05/10 07:32:33;;;;;;;9.25;5.38;;;;;;;20.57;42.81;99728.16;5107639;28;20288;-77
2022/05/10 07:35:04;;;;;;;8.02;5.57;;;;;;;20.73;42.71;99723.91;5107752;28;20048;-76
2022/05/10 07:37:34;;;;;;;5.43;4.30;;;;;;;20.93;41.85;99726.63;5107837;28;20103;-76
2022/05/10 07:40:07;;;;;;;10.18;5.43;;;;;;;21.12;41.78;99726.66;5107897;28;20103;-77
2022/05/10 07:42:40;;;;;;;7.13;4.93;;;;;;;21.26;41.75;99731.59;5107488;28;20039;-77
2022/05/10 07:45:11;;;;;;;9.70;5.53;;;;;;;21.37;40.69;99719.81;5106907;28;20047;-76
2022/05/10 07:47:43;;;;;;;6.22;4.80;;;;;;;21.51;41.30;99726.59;5107160;28;20040;-77
2022/05/10 07:50:16;;;;;;;8.05;5.28;;;;;;;21.56;40.85;99722.47;5107264;28;20040;-76
2022/05/10 07:52:49;;;;;;;8.88;4.85;;;;;;;21.61;41.38;99725.59;5107214;28;20043;-77
2022/05/10 07:55:22;;;;;;;8.85;5.05;;;;;;;21.77;40.85;99728.50;5107406;28;20093;-77
2022/05/10 07:57:55;;;;;;;7.53;5.32;;;;;;;21.83;41.12;99721.72;5107434;28;20047;-77
2022/05/10 08:00:27;;;;;;;6.35;5.45;;;;;;;21.83;41.02;99724.41;5107518;28;20043;-76
2022/05/10 08:02:59;;;;;;;8.85;6.82;;;;;;;21.74;40.89;99725.25;5107985;28;20048;-76
2022/05/10 08:05:31;;;;;;;8.43;6.38;;;;;;;21.77;40.76;99731.22;5107265;28;20227;-76
2022/05/10 08:08:04;;;;;;;9.70;4.80;;;;;;;21.88;40.91;99724.81;5107082;28;20090;-76
2022/05/10 08:10:38;;;;;;;9.07;4.88;;;;;;;21.71;39.92;99672.47;5107395;28;20048;-77
2022/05/10 08:13:11;;;;;;;;;;;;;;;22.05;37.70;99726.75;5107413;28;20044;-76
2022/05/10 08:15:44;;;;;;;8.38;4.90;;;;;;;22.12;39.71;99726.13;5106809;28;20138;-77
2022/05/10 08:18:17;;;;;;;9.40;4.78;;;;;;;22.18;40.27;99721.00;5106055;28;20067;-78
2022/05/10 08:20:51;;;;;;;7.50;5.25;;;;;;;22.12;40.12;99709.94;5106940;28;20039;-77
2022/05/10 08:23:25;;;;;;;;;;;;;;;22.05;37.94;99717.78;5107119;28;20117;-77
2022/05/10 08:26:00;;;;;;;6.60;4.57;;;;;;;22.14;40.15;99718.75;5106834;28;20115;-77
2022/05/10 08:28:35;;;;;;;7.45;4.63;;;;;;;22.25;39.94;99722.09;5106649;28;20039;-77
2022/05/10 08:31:09;;;;;;;8.02;5.10;;;;;;;22.32;39.42;99716.94;5106746;28;20044;-75
2022/05/10 08:33:44;;;;;;;8.18;5.10;;;;;;;22.48;38.46;99721.72;5106866;28;20040;-76
2022/05/10 08:36:16;;;;;;;7.22;4.85;;;;;;;22.54;39.38;99723.81;5106447;28;20250;-76
2022/05/10 08:38:48;;;;;;;7.13;5.07;;;;;;;20.49;39.09;99343.88;5106740;28;20044;-76
2022/05/10 08:41:27;;;;;;;7.50;4.70;;;;;;;22.62;38.19;99700.47;5106814;28;20044;-76
2022/05/10 08:44:03;;;;;;;7.68;4.28;;;;;;;21.38;39.08;99473.50;5106708;28;20117;-77
2022/05/10 08:46:41;;;;;;;6.70;4.10;;;;;;;23.04;38.22;99716.06;5105583;28;20075;-77
2022/05/10 08:49:20;;;;;;;7.32;4.65;;;;;;;23.11;37.54;99706.31;5106576;28;20036;-78
2022/05/10 08:51:53;;;;;;;6.75;4.60;;;;;;;23.29;38.37;99701.78;5106302;28;20062;-77
2022/05/10 08:54:27;;;;;;;7.75;4.18;;;;;;;23.41;37.96;99693.41;5106114;28;20097;-76
2022/05/10 08:57:06;;;;;;;6.38;4.75;;;;;;;23.25;36.90;99702.22;5106343;28;20067;-76
2022/05/10 08:59:45;;;;;;;11.75;4.95;;;;;;;23.20;37.58;99702.69;5089076;28;20044;-76
2022/05/10 09:02:25;;;;;;;7.35;4.68;;;;;;;23.47;37.49;99695.47;5106181;28;20298;-77
2022/05/10 09:05:06;;;;;;;6.03;4.90;;;;;;;23.60;36.71;99682.38;5106063;28;20098;-77
2022/05/10 09:07:44;;;;;;;6.55;4.05;;;;;;;23.57;37.18;99683.53;5106220;28;20040;-77
2022/05/10 09:10:20;;;;;;;8.85;5.13;;;;;;;23.72;36.96;99689.19;5106244;28;20050;-77
2022/05/10 09:12:58;;;;;;;6.20;4.57;;;;;;;23.34;36.31;99609.34;5106214;28;20040;-77
2022/05/10 09:15:35;;;;;;;5.88;4.28;;;;;;;23.81;36.25;99679.28;5105730;28;20181;-76
2022/05/10 09:18:09;;;;;;;8.55;5.55;;;;;;;23.80;37.22;99674.88;5106122;28;20082;-77
2022/05/10 09:20:59;;;;;;;11.30;4.88;;;;;;;23.74;36.07;99670.09;5105871;28;20081;-78
2022/05/10 09:23:40;;;;;;;5.70;4.00;;;;;;;23.65;36.30;99672.75;5105508;28;20052;-77
2022/05/10 09:26:14;;;;;;;4.97;3.83;;;;;;;22.85;38.05;99517.09;5106090;28;20152;-77
2022/05/10 09:28:58;;;;;;;7.97;4.10;;;;;;;23.91;36.15;99670.03;5105919;28;20043;-76
2022/05/10 09:37:22;;;;;;;9.65;4.47;;;;;;;24.40;34.36;99659.38;5105685;28;20097;-77
2022/05/10 09:40:12;;;;;;;8.57;4.80;;;;;;;24.72;33.62;99660.50;5105512;28;20051;-77
2022/05/10 09:42:45;;;;;;;13.13;4.22;;;;;;;24.80;34.89;99655.06;5105534;28;20280;-76
2022/05/10 09:45:17;;;;;;;8.85;4.30;;;;;;;24.71;33.73;99653.38;5105666;28;20081;-77
2022/05/10 09:47:58;;;;;;;5.07;3.67;;;;;;;23.42;33.38;99452.53;5105522;28;20081;-77
2022/05/10 09:50:33;;;;;;;5.00;3.53;;;;;;;24.93;34.06;99648.13;5105072;28;20044;-76
2022/05/10 09:53:14;;;;;;;3.90;3.20;;;;;;;25.04;32.23;99636.13;5104897;28;20358;-76
2022/05/10 09:55:57;;;;;;;7.22;3.97;;;;;;;24.99;32.50;99635.75;5105357;28;20044;-77
2022/05/10 09:58:31;;;;;;;5.25;3.55;;;;;;;25.17;33.97;99636.47;5104995;28;20044;-77
2022/05/10 10:01:11;;;;;;;7.72;3.92;;;;;;;25.24;32.60;99636.63;5105255;28;20259;-76
2022/05/10 10:03:45;;;;;;;7.25;4.07;;;;;;;24.31;33.91;99459.97;5105418;28;20036;-77
2022/05/10 10:06:18;;;;;;;;;;;;;;;25.49;31.70;99623.88;5105701;28;20052;-77
2022/05/10 10:08:52;;;;;;;5.40;3.67;;;;;;;25.69;33.92;99618.91;5106181;28;19973;-77
2022/05/10 10:11:28;;;;;;;5.95;3.88;;;;;;;23.67;32.58;99307.34;5109365;28;20040;-76
2022/05/10 10:14:03;;;;;;;6.50;3.60;;;;;;;25.52;32.37;99609.97;5109127;28;20092;-77
2022/05/10 10:16:49;;;;;;;5.93;3.42;;;;;;;24.29;30.76;99410.53;5109456;28;20043;-77
2022/05/10 10:19:36;;;;;;;5.00;3.72;;;;;;;24.28;30.92;99460.31;5109263;28;20270;-77
2022/05/10 10:22:13;;;;;;;5.68;3.63;;;;;;;25.38;32.15;99605.25;5109285;28;20121;-77
2022/05/10 10:24:51;;;;;;;6.97;3.88;;;;;;;25.42;31.78;99610.16;5109293;28;20051;-77
2022/05/10 10:27:29;;;;;;;5.57;2.92;;;;;;;25.18;32.25;99610.19;5109226;28;20051;-78
2022/05/10 10:30:09;;;;;;;6.32;3.13;;;;;;;25.20;32.17;99606.28;5109158;28;20040;-77
2022/05/10 10:32:47;;;;;;;5.38;3.35;;;;;;;25.16;32.08;99602.22;5107993;28;20076;-76
2022/05/10 10:35:32;;;;;;;6.15;3.72;;;;;;;25.21;32.33;99602.56;5108769;28;20047;-77
2022/05/10 10:38:15;;;;;;;4.63;2.90;;;;;;;25.27;31.83;99593.72;5108076;28;20358;-77
2022/05/10 10:40:54;;;;;;;5.60;3.03;;;;;;;25.47;32.54;99594.22;5108389;28;20044;-77
2022/05/10 10:43:32;;;;;;;5.80;3.70;;;;;;;25.53;31.76;99590.81;5108597;28;20379;-77
2022/05/10 10:46:12;;;;;;;5.75;3.95;;;;;;;25.38;30.44;99583.56;5109010;28;20297;-77
2022/05/10 10:48:49;;;;;;;6.78;3.80;;;;;;;24.41;31.27;99471.47;5108735;28;20047;-77
2022/05/10 10:51:23;;;;;;;6.07;3.10;;;;;;;24.75;32.90;99587.81;5108640;28;20044;-77
2022/05/10 10:53:55;;;;;;;;;;;;;;;24.73;30.84;99578.16;5108840;28;20040;-77
2022/05/10 10:56:42;;;;;;;5.57;3.65;;;;;;;24.71;31.59;99580.19;5108385;28;19915;-77
2022/05/10 10:59:32;;;;;;;5.18;3.50;;;;;;;24.53;31.42;99574.91;5108586;28;20047;-77
2022/05/10 11:02:32;;;;;;;6.70;3.50;;;;;;;24.41;31.36;99577.09;5108494;28;20043;-77
2022/05/10 11:05:23;;;;;;;5.25;2.85;;;;;;;24.37;31.69;99583.88;5108414;28;20296;-76
2022/05/10 11:08:04;;;;;;;6.05;3.17;;;;;;;24.37;32.54;99583.88;5108245;28;20051;-77
2022/05/10 11:10:46;;;;;;;5.38;3.17;;;;;;;24.41;31.86;99582.53;5108283;28;20204;-78
2022/05/10 11:13:31;;;;;;;7.00;3.55;;;;;;;24.45;31.67;99583.03;5108129;28;20040;-77
2022/05/10 11:16:15;;;;;;;3.83;2.78;;;;;;;24.51;31.72;99576.94;5108250;28;20044;-79
2022/05/10 11:18:54;;;;;;;;;;;;;;;24.49;32.10;99568.16;5108953;28;20043;-79
2022/05/10 11:21:40;;;;;;;5.65;3.67;;;;;;;24.58;31.98;99559.84;5106109;28;20088;-79
2022/05/10 11:24:23;;;;;;;5.07;3.22;;;;;;;24.48;31.66;99564.59;5107811;28;20102;-78
2022/05/10 11:27:11;;;;;;;5.88;3.40;;;;;;;24.55;32.28;99553.91;5108247;28;20043;-77
2022/05/10 11:29:59;;;;;;;5.53;3.58;;;;;;;24.83;31.17;99549.88;5108059;28;20261;-78
2022/05/10 11:32:48;;;;;;;4.30;3.20;;;;;;;24.80;31.63;99571.06;5108123;28;20043;-79
2022/05/10 11:35:42;;;;;;;12.63;3.70;;;;;;;16.24;31.89;98125.19;5107624;28;20047;-76
2022/05/10 11:38:29;;;;;;;3.45;2.63;;;;;;;24.78;31.88;99548.69;5107488;28;20212;-77
2022/05/10 11:41:12;;;;;;;4.13;3.30;;;;;;;24.82;31.51;99542.75;5107407;28;20220;-78
2022/05/10 11:44:20;;;;;;;6.05;3.45;;;;;;;24.69;31.81;99538.88;5107973;28;20036;-78
2022/05/10 11:47:22;;;;;;;6.32;3.85;;;;;;;24.63;32.18;99543.09;5108453;28;20044;-78
2022/05/10 11:50:18;;;;;;;6.43;3.08;;;;;;;24.71;32.38;99539.56;5107661;28;20296;-78
2022/05/10 11:53:23;;;;;;;4.63;3.58;;;;;;;24.72;32.08;99544.81;5106766;28;20040;-78
2022/05/10 11:55:58;;;;;;;;;;;;;;;24.58;31.89;99531.91;5107786;28;20047;-78
2022/05/10 11:58:32;;;;;;;9.98;3.65;;;;;;;23.95;33.43;99406.13;5107584;28;19927;-78
2022/05/10 12:01:06;;;;;;;5.30;3.72;;;;;;;24.93;32.76;99518.00;5111000;28;20287;-78
2022/05/10 12:03:51;;;;;;;7.68;4.18;;;;;;;24.87;30.99;99520.56;5109980;28;20288;-78
2022/05/10 12:06:42;;;;;;;6.03;4.00;;;;;;;24.77;31.90;99515.31;5110077;28;20051;-78
2022/05/10 12:09:17;;;;;;;5.32;3.28;;;;;;;24.75;31.93;99513.81;5109394;28;20040;-77
2022/05/10 12:11:54;;;;;;;4.47;3.08;;;;;;;24.53;32.93;99518.03;5106291;28;20047;-76
2022/05/10 12:21:25;;;;;;;4.65;2.85;;;;;;;24.86;31.36;99505.31;5065407;28;20301;-77
2022/05/10 12:24:13;;;;;;;5.07;2.92;;;;;;;25.15;31.29;99500.19;5065719;28;20209;-77
2022/05/10 12:26:47;;;;;;;5.38;3.30;;;;;;;25.30;31.83;99494.03;5098453;28;20063;-77
2022/05/10 12:29:56;;;;;;;5.45;3.55;;;;;;;25.39;30.96;99491.16;5106846;28;20036;-77
2022/05/10 12:32:56;;;;;;;5.15;3.97;;;;;;;25.39;30.42;99487.59;5106372;28;20047;-77
2022/05/10 12:36:13;;;;;;;5.20;3.30;;;;;;;25.08;30.83;99485.63;5106641;28;20058;-77
2022/05/10 12:38:49;;;;;;;4.78;3.90;;;;;;;24.66;32.01;99439.81;5107326;28;20205;-77
2022/05/10 12:41:49;;;;;;;4.18;3.50;;;;;;;24.04;31.20;99408.88;5105601;28;20211;-76